METAR Data
IDs: Format: Raw Decoded Include TAF

Data at: 1806 UTC 23 Apr 2019

KLAM 231755Z AUTO 24003KT 10SM -RA 07/04 A3020 RMK AO2 P0002 60002 T00650044 10073 20035
KLAM 231735Z AUTO 20003KT 5SM -RA 07/04 A3020 RMK AO2 P0002 T00650038
KLAM 231715Z AUTO 06003KT 10SM -RA 07/04 A3020 RMK AO2 T00720039
KLAM 231655Z AUTO 05003KT 10SM 07/03 A3020 RMK AO2 T00700030
KLAM 231635Z AUTO 04005KT 10SM 07/03 A3020 RMK AO2 T00650028
KLAM 231615Z AUTO 01003KT 10SM 06/03 A3020 RMK AO2 T00620028
KLAM 231555Z AUTO 03005KT 10SM 06/03 A3019 RMK AO2 T00610031
KLAM 231535Z AUTO 35006KT 320V030 10SM 06/03 A3019 RMK AO2 T00570029
KLAM 231515Z AUTO 02004KT 10SM 06/03 A3019 RMK AO2 T00550032
KLAM 231455Z AUTO 00000KT 10SM 05/03 A3018 RMK AO2 T00530029
KLAM 231435Z AUTO 32003KT 10SM 05/04 A3018 RMK AO2 T00500035
KLAM 231415Z AUTO 34005KT 10SM 05/03 A3018 RMK AO2 T00450033
KLAM 231355Z AUTO 33008KT 10SM 04/03 A3018 RMK AO2 T00420031
KLAM 231335Z AUTO 33009KT 320V040 10SM RA 04/03 A3018 RMK AO2 T00410028
KLAM 231315Z AUTO 33006KT 10SM 04/02 A3017 RMK AO2 T00410024
KLAM 231255Z AUTO 33008KT 10SM 04/03 A3017 RMK AO2 T00410026
KLAM 231235Z AUTO 33008KT 10SM -DZ 04/04 A3016 RMK AO2 T00400035
KLAM 231215Z AUTO 35004KT 10SM -DZ 04/04 A3016 RMK AO2 T00350035
KLAM 231155Z AUTO 33005KT 10SM DZ 04/04 A3016 RMK AO2 P0003 60028 70036 T00370037 10058 20037
KLAM 231135Z AUTO 33005KT 7SM RA 04/04 A3015 RMK AO2 P0003 T00400040
KLAM 231115Z AUTO 02004KT 1 3/4SM -RA 04/04 A3017 RMK AO2 P0002 T00420042
KLAM 231055Z AUTO 00000KT 7SM -RA 04/04 A3016 RMK AO2 P0005 T00410041
KLAM 231035Z AUTO 30006KT 7SM RA 04/04 A3017 RMK AO2 P0003 T00440044
KLAM 231015Z AUTO 30006KT 7SM -RA 04/04 A3017 RMK AO2 P0001 T00440044
KLAM 230955Z AUTO 30003KT 7SM -RA 05/05 A3017 RMK AO2 P0002 T00450045
KLAM 230935Z AUTO 00000KT 10SM -RA 04/04 A3017 RMK AO2 P0001 T00430043
KLAM 230915Z AUTO 00000KT 7SM -RA 04/04 A3018 RMK AO2 P0001 T00410041
KLAM 230855Z AUTO 00000KT 3SM -RA 04/04 A3019 RMK AO2 P0005 60018 T00430043
KLAM 230835Z AUTO 10003KT 5SM -RA 05/05 A3019 RMK AO2 P0003 T00450045
KLAM 230815Z AUTO 00000KT 7SM -RA 05/05 A3019 RMK AO2 P0001 T00450045
KLAM 230755Z AUTO 00000KT 2SM RA 04/04 A3020 RMK AO2 VIS 3/4V5 P0003 T00440044
KLAM 230740Z AUTO 00000KT 10SM RA 05/05 A3020 RMK AO2 P0002 T00450045
KLAM 230715Z AUTO 13005KT 10SM -RA 05/05 A3021 RMK AO2 P0001 T00470047
KLAM 230655Z AUTO 00000KT 7SM -RA 05/05 A3021 RMK AO2 P0010 T00500050
KLAM 230635Z AUTO 15004KT 7SM -RA 05/05 A3021 RMK AO2 P0008 T00510048
KLAM 230615Z AUTO 20012G16KT 150V220 5SM RA 05/05 A3021 RMK AO2 P0006 T00540054
KLAM 230555Z AUTO 17009G15KT 140V210 7SM RA 06/06 A3021 RMK AO2 P0003 60007 T00580058 10135 20053 401670053
KLAM 230535Z AUTO 20009G14KT 7SM -RA 06/06 A3020 RMK AO2 P0001 T00580058
KLAM 230515Z AUTO 20010KT 10SM RA 06/04 A3020 RMK AO2 T00610039
KLAM 230455Z AUTO 23007KT 10SM 06/03 A3019 RMK AO2 T00620032
KLAM 230435Z AUTO 24010KT 10SM 06/03 A3018 RMK AO2 T00570032
KLAM 230415Z AUTO 23011G19KT 10SM -DZ 06/04 A3018 RMK AO2 T00560040
KLAM 230355Z AUTO 22013G21KT 10SM -RA 07/06 A3018 RMK AO2 P0004 T00660062
KLAM 230335Z AUTO 21008KT 7SM -RA 07/05 A3018 RMK AO2 P0003 T00650051
KLAM 230315Z AUTO 20013G21KT 140V220 10SM DZ 08/04 A3017 RMK AO2 T00810038
KLAM 230255Z AUTO 20016G20KT 10SM 11/02 A3016 RMK AO2 T01080015
KLAM 230235Z AUTO 20005KT 10SM 11/00 A3014 RMK AO2 T01121001
KLAM 230215Z AUTO 21003KT 10SM 12/M01 A3014 RMK AO2 T01151006
KLAM 230155Z AUTO 21003KT 10SM 12/M01 A3013 RMK AO2 T01161007
KLAM 230135Z AUTO 00000KT 10SM 12/M01 A3013 RMK AO2 T01181009
KLAM 230115Z AUTO 14005KT 10SM 12/M01 A3012 RMK AO2 T01221009
KLAM 230055Z AUTO 13005KT 10SM 12/M01 A3012 RMK AO2 T01241015
KLAM 230035Z AUTO 13008KT 10SM 13/M01 A3013 RMK AO2 T01261015
KLAM 230015Z AUTO 13010G20KT 110V170 10SM 13/M02 A3013 RMK AO2 T01311021
KLAM 222355Z AUTO 14010G20KT 10SM 13/M01 A3013 RMK AO2 T01341014 10167 20134
KLAM 222335Z AUTO 14011G27KT 10SM 14/M02 A3013 RMK AO2 T01381019
KLAM 222315Z AUTO 16012G19KT 140V210 10SM 14/M02 A3012 RMK AO2 T01421020
KLAM 222255Z AUTO 14009G14KT 120V200 10SM 15/M02 A3011 RMK AO2 T01501017
KLAM 222235Z AUTO 20011G22KT 150V210 10SM 15/M02 A3011 RMK AO2 T01501018
KLAM 222215Z AUTO 15014G18KT 10SM 15/M02 A3012 RMK AO2 T01501022
KLAM 222155Z AUTO 15015G19KT 10SM 15/M01 A3012 RMK AO2 T01511015
KLAM 222135Z AUTO 14013G20KT 10SM 16/M01 A3013 RMK AO2 T01581008
KLAM 222115Z AUTO 14015G23KT 10SM 17/M01 A3013 RMK AO2 T01661007
KLAM 222055Z AUTO 16011G22KT 130V210 10SM 16/M02 A3013 RMK AO2 T01591018
KLAM 222035Z AUTO 18009G23KT 140V220 10SM 16/M01 A3013 RMK AO2 T01591013
KLAM 222015Z AUTO 16018G25KT 130V220 10SM 16/M01 A3013 RMK AO2 T01611011
KLAM 221955Z AUTO 20016G22KT 140V210 10SM 16/M01 A3014 RMK AO2 T01571008
KLAM 221935Z AUTO 15015G24KT 140V210 10SM 16/00 A3015 RMK AO2 T01551005
KLAM 221915Z AUTO 18010G26KT 140V220 10SM 15/M01 A3015 RMK AO2 T01511007
KLAM 221855Z AUTO 17016G26KT 140V210 10SM 15/00 A3015 RMK AO2 T01471003
KLAM 221835Z AUTO 18015G20KT 140V210 10SM 16/M02 A3015 RMK AO2 T01581016
KLAM 221815Z AUTO 19013G21KT 140V210 10SM 16/M03 A3016 RMK AO2 T01601029
KLAM 221755Z AUTO 15011G21KT 10SM 16/M02 A3016 RMK AO2 T01611024 10161 20092
KLAM 221735Z AUTO 15014G19KT 140V200 10SM 16/M03 A3016 RMK AO2 T01561029
KLAM 221715Z AUTO 21005G16KT 10SM 15/M02 A3016 RMK AO2 T01481024
KLAM 221655Z AUTO 21005KT 10SM 15/M04 A3016 RMK AO2 T01471038
KLAM 221635Z AUTO 19007KT 140V210 10SM 14/M05 A3017 RMK AO2 T01431049
KLAM 221615Z AUTO 21010G15KT 10SM 14/M05 A3016 RMK AO2 T01361047
KLAM 221555Z AUTO 20009KT 10SM 14/M06 A3016 RMK AO2 T01351061
KLAM 221535Z AUTO 16006KT 10SM 13/M07 A3016 RMK AO2 T01341066
KLAM 221515Z AUTO 13006KT 10SM 13/M07 A3016 RMK AO2 T01261067
KLAM 221455Z AUTO 16005KT 10SM 12/M06 A3016 RMK AO2 T01191065
KLAM 221435Z AUTO 15004KT 10SM 12/M06 A3016 RMK AO2 T01171059
KLAM 221415Z AUTO 06003KT 10SM 13/M06 A3016 RMK AO2 T01251060
KLAM 221355Z AUTO 00000KT 10SM 12/M07 A3015 RMK AO2 T01221073
KLAM 221335Z AUTO 30003KT 10SM 12/M07 A3015 RMK AO2 T01151069
KLAM 221315Z AUTO 32003KT 10SM 11/M08 A3014 RMK AO2 T01101081
KLAM 221255Z AUTO 00000KT 10SM 11/M09 A3014 RMK AO2 T01051087
KLAM 221235Z AUTO 31003KT 10SM 09/M08 A3013 RMK AO2 T00931085
KLAM 221215Z AUTO 30005KT 10SM 10/M08 A3013 RMK AO2 T00951084
KLAM 221155Z AUTO 30008KT 10SM 09/M08 A3012 RMK AO2 T00941085 10144 20094
KLAM 221135Z AUTO 30005KT 10SM 11/M09 A3012 RMK AO2 T01091092
KLAM 221115Z AUTO 30003KT 10SM 11/M09 A3012 RMK AO2 T01091093
KLAM 221055Z AUTO 00000KT 10SM 11/M09 A3012 RMK AO2 T01121093
KLAM 221035Z AUTO 31005KT 10SM 11/M09 A3011 RMK AO2 T01111091
KLAM 221015Z AUTO 30007KT 10SM 11/M09 A3011 RMK AO2 T01111091
KLAM 220955Z AUTO 30007KT 10SM 12/M09 A3011 RMK AO2 T01181095
KLAM 220935Z AUTO 29006KT 230V310 10SM 12/M10 A3011 RMK AO2 T01161096
KLAM 220915Z AUTO 00000KT 10SM 12/M09 A3011 RMK AO2 T01201095
KLAM 220855Z AUTO 00000KT 10SM 12/M09 A3011 RMK AO2 T01151094
KLAM 220835Z AUTO 10003KT 10SM 11/M08 A3011 RMK AO2 T01091081
KLAM 220815Z AUTO 00000KT 10SM 12/M11 A3011 RMK AO2 T01231108
KLAM 220755Z AUTO 15003KT 10SM 13/M11 A3010 RMK AO2 T01251106
KLAM 220735Z AUTO 00000KT 10SM 13/M11 A3009 RMK AO2 T01261107
KLAM 220715Z AUTO 24004KT 10SM 13/M11 A3009 RMK AO2 T01331110
KLAM 220655Z AUTO 26005KT 10SM 14/M11 A3009 RMK AO2 T01381107
KLAM 220635Z AUTO 24004KT 10SM 14/M10 A3009 RMK AO2 T01411105
KLAM 220615Z AUTO 26004KT 10SM 14/M11 A3009 RMK AO2 T01391106